Saint Médard d'Aunis (17)                     Juin 2021                                
  Température (°C) - Abri Young à ventilation mécanique 43502 (moy/5min)  Davis 7714 (moy/1min) Humidité Vent Davis (km/h) PeetBros Instromet Précipitations (mm) Pression (hPa) Divers  
Date Maxi USCRN /5min Mini  USCRN /5min Moy de 1440 relevés Moy (tx+tn)/2 Index chaleur moyen Index chaleur maxi Froid dû au vent moy/5min  Froid dû au vent mini/5min   Amplitude (tx-tn) Tx OMM/1min Tn OMM/1min Moy de 1440 relevés Moy (tx+tn)/2 Relative maxi Relative mini Relative moy de 1440 relevés Relative moy (hx+hn)/2 Point de rosée maxi Point de rosée mini Point de rosée moy 1440 relevés Vent moy maxi (10min) Vent  moyen (24h) Direction dominante Rafales (km/h) maxi Direction rafale maxi Rafales moy (24h) Rafales (km/h)   maxi Rafales (km/h)   maxi Total du jour (mm) Durée en heures et dixièmes Intensité maxi sur 1 min (mm/h) Maxi Mini Moy de 1440 relevés Moy (px+pn)/2 Variation Epaisseur neige (cm) Remarques diverses    
01/06/2021 28,3 14,7 21,20 21,50 21,40 29,0 20,75 14,1 13,6 28,2 14,6 21,17 21,40 93% 50% 71,0% 71,5% 18,7 11,0 15,37 20,26 10,32 ENE 32,2 SSE 14,57 32,0 35 1,0 0,3 12,0 1010,9 1008,2 1009,30 1009,55 2,7   Ciel 3/8 à 5/8 le matin, 5/8 à 8/8 l'après-midi, pluie le soir  
02/06/2021 22,5 14,4 18,64 18,48 18,72 22,6 18,13 14,2 8,0 23,0 14,5 18,79 18,75 94% 62% 81,3% 78,0% 17,4 12,9 15,05 20,58 10,39 SSW 29,0 WSW 14,54 29,4 30 0,2 0,1 12,0 1017,4 1010,1 1014,18 1013,75 7,3   Ciel entre 6/8 et 8/8 le matin, 6/8 à 0/8 l'après-midi, 3/8 le soir  
03/06/2021 23,0 14,3 18,22 18,66 18,53 23,7 17,92 13,1 8,6 23,4 14,3 18,32 18,85 95% 74% 87,9% 84,5% 18,5 12,8 15,96 15,30 7,90 W 22,5 ESE 10,80 24,0 24 4,2 1,3 12,0 1021,2 1016,9 1018,90 1019,05 4,3   Ciel entre 6/8 et 8/8, pluie matin et soir  
04/06/2021 17,7 11,5 15,49 14,59 15,52 17,7 14,59 10,5 6,1 17,7 11,5 15,48 14,60 96% 76% 90,8% 86,0% 16,0 10,1 13,82 20,42 10,88 NW 29,0 W 14,42 31,5 30 1,0 0,4 12,0 1026,9 1020,1 1023,18 1023,50 6,8   Ciel 8/8 le matin, pluie, entre 7/8 et 8/8 l'après-midi  
05/06/2021 22,9 8,3 16,24 15,62 15,91 22,4 15,76 8,0 14,6 23,0 8,2 16,37 15,60 96% 48% 73,2% 72,0% 13,5 7,5 10,80 19,14 7,18 NW 30,6 WNW 9,90 29,9 29 0,2 0,1 12,0 1027,5 1024,3 1026,03 1025,90 3,2   Ciel entre 0/8 et 6/8  
06/06/2021 24,7 9,5 17,78 17,11 17,48 24,3 17,12 8,8 15,0 24,5 9,3 17,79 16,90 94% 42% 69,5% 68,0% 13,6 8,3 11,39 23,62 9,91 WNW 33,8 WNW 13,25 34,0 34 0,0 0,0 0,0 1025,5 1022,6 1024,09 1024,05 2,9   Ciel 0/8 le matin, entre 2/8 et 6/8 l'après-midi  
07/06/2021 25,8 11,6 18,99 18,74 18,83 25,5 18,66 11,6 14,1 26,3 11,8 19,06 19,05 95% 44% 71,0% 69,5% 15,4 10,6 12,92 20,59 7,13 WNW 32,2 WSW 9,65 32,4 34 0,0 0,0 0,0 1023,6 1022,0 1022,87 1022,80 1,6   Ciel entre 0/8 et 4/8 le matin, entre 2/8 et 6/8 l'après-midi, 7/8 le soir  
08/06/2021 28,0 9,7 20,01 18,85 19,86 27,9 19,63 9,6 18,3 28,2 9,5 20,03 18,85 95% 41% 66,9% 68,0% 16,2 8,7 12,77 22,66 7,93 WNW 29,0 WNW 10,71 31,4 30 0,0 0,0 0,0 1023,3 1021,3 1022,34 1022,30 2,0   Ciel 0/8 à 2/8 le matin, entre 2/8 et 4/8 l'après-midi  
09/06/2021 26,6 11,7 19,40 19,15 19,07 25,8 18,82 11,7 14,7 26,6 11,6 19,35 19,10 91% 32% 65,3% 61,5% 14,4 7,6 11,74 22,34 10,41 NW 32,2 WNW 13,68 32,0 31 0,0 0,0 0,0 1023,7 1022,0 1022,83 1022,85 1,7   Ciel entre 0/8 et 5/8 le matin, entre 0/8 et 3/8 l'après-midi  
10/06/2021 27,0 11,6 19,96 19,29 20,40 27,1 19,84 11,3 15,4 27,2 11,2 20,06 19,20 96% 51% 76,0% 73,5% 17,8 10,1 15,22 19,78 7,54 WNW 27,4 WSW 10,38 28,7 29 0,0 0,0 0,0 1023,2 1019,6 1021,05 1021,40 3,6   Brouillard, ciel 8/8 à 2/8 le matin, entre 0/8 et 4/8 ensuite  
11/06/2021 30,1 15,4 23,15 22,75 23,53 30,5 22,92 15,3 14,6 30,4 15,5 23,25 22,95 91% 41% 69,2% 66,0% 19,5 13,9 16,59 16,26 8,56 NNE 25,7 NW 11,80 25,7 23 0,0 0,0 0,0 1020,8 1018,4 1019,41 1019,60 2,4   Ciel entre 0/8 et 6/8 le matin, entre 4/8 et 8/8 l'après-midi, traces de précip.  
12/06/2021 32,1 16,3 24,93 24,22 25,47 33,4 24,65 16,3 15,7 32,3 17,0 25,03 24,65 91% 41% 64,8% 66,0% 19,4 14,6 17,11 20,74 9,54 NNE 29,0 WNW 12,89 30,0 29 0,0 0,0 0,0 1023,0 1020,5 1021,68 1021,75 2,5   Ciel entre 0/8 et 6/8  
13/06/2021 32,2 17,3 25,00 24,77 25,29 32,5 24,75 17,2 14,9 32,3 17,4 25,06 24,85 86% 35% 61,4% 60,5% 19,4 14,3 16,14 17,86 10,15 NE 32,2 ENE 13,93 28,0 32 0,0 0,0 0,0 1023,4 1019,5 1021,65 1021,45 3,9   Ciel 0/8  
14/06/2021 31,9 15,4 24,35 23,64 24,58 32,5 23,92 15,3 16,4 32,1 15,3 24,33 23,70 88% 38% 61,7% 63,0% 17,7 13,1 15,74 31,72 11,37 NNE 43,5 WNW 15,08 45,0 44 0,0 0,0 0,0 1020,4 1018,2 1019,40 1019,30 2,2   Ciel entre 0/8 et 1/8  
15/06/2021 33,0 17,3 25,25 25,16 25,70 33,6 25,07 17,2 15,9 33,2 17,2 25,36 25,20 88% 34% 62,3% 61,0% 18,8 14,1 16,59 24,10 8,36 NNE 33,8 WNW 11,60 * 36 0,0 0,0 0,0 1019,9 1014,0 1017,50 1016,95 5,9   Ciel entre 0/8 et 2/8  
16/06/2021 32,9 16,3 23,80 24,58 24,55 34,6 23,47 15,8 16,7 32,6 16,3 23,82 24,45 94% 41% 71,2% 67,5% 20,5 14,4 17,66 39,75 9,15 ENE 56,3 WSW 12,56 55,9 58 6,6 1,9 24,0 1014,1 1007,6 1010,36 1010,85 6,5   Ciel entre 0/8 et 8/8 le matin, averses, 6/8 à 8/8 ensuite, pluie, orages  
17/06/2021 24,9 18,0 20,31 21,46 21,07 26,0 19,89 15,8 6,9 24,9 18,0 20,33 21,45 96% 70% 89,1% 83,0% 20,3 17,1 18,30 20,42 10,48 SSE 32,2 S 14,78 30,1 * 23,6 2,9 48,0 1011,3 1007,8 1009,74 1009,55 3,5   Ciel entre 5/8 et 8/8 le matin, 8/8 l'après-midi, pluie  
18/06/2021 21,6 16,7 18,84 19,17 19,38 22,2 18,34 15,1 4,8 21,8 16,9 18,90 19,35 97% 77% 90,1% 87,0% 18,3 15,6 17,04 20,10 10,05 WSW 33,8 S 13,63 33,3 32 21,2 2,7 72,0 1015,7 1008,1 1012,96 1011,90 7,6   Ciel 8/8 le matin, pluie, 8/8 l'après-midi à 5/8 le soir  
19/06/2021 23,8 14,7 18,82 19,25 19,39 24,8 18,45 14,8 9,0 23,8 14,9 18,85 19,35 96% 76% 90,7% 86,0% 20,1 13,8 17,14 25,74 8,69 WSW 40,2 WSW 12,04 40,8 40 13,2 2,3 108,0 1015,3 1010,7 1012,47 1013,00 4,6   Ciel entre 6/8 et 8/8 le matin, pluie, orages, 8/8 à 2/8 l'après-midi  
20/06/2021 25,2 13,7 18,38 19,48 18,73 25,6 17,52 13,4 11,4 25,1 13,8 18,38 19,45 96% 58% 84,9% 77,0% 19,3 12,7 15,56 33,96 12,23 WSW 48,3 WSW 16,91 48,9 51 0,8 0,3 12,0 1011,9 1003,4 1006,69 1007,65 8,5   Ciel entre 4/8 et 8/8, averses l'après-midi  
21/06/2021 23,7 15,0 18,62 19,35 18,66 23,8 18,20 14,5 8,8 23,9 14,9 18,71 19,40 95% 54% 78,0% 74,5% 16,7 12,2 14,31 28,49 8,37 SE 40,2 W 11,66 39,8 41 0,4 0,2 12,0 1010,3 1006,6 1008,20 1008,45 3,7   Ciel entre 3/8 et 7/8 le matin, faibles averses, 5/8 à 6/8 ensuite, tonnerre  
22/06/2021 22,7 14,1 17,17 18,38 17,36 22,6 16,77 13,2 8,4 22,6 14,1 17,14 18,35 94% 63% 86,0% 78,5% 17,1 12,4 14,65 24,94 9,34 NNW 35,4 NNW 12,91 37,5 37 9,6 0,7 156,0 1017,6 1009,9 1013,25 1013,75 7,7   Ciel 3/8 à 6/8 le matin, entre 6/8 et 8/8 l'après-midi, pluie, orages  
23/06/2021 19,3 13,9 16,30 16,61 16,36 19,4 15,53 12,9 5,3 19,3 14,0 16,32 16,65 95% 71% 85,5% 83,0% 14,6 12,5 13,72 20,42 11,64 NE 30,6 NE 15,54 31,3 30 0,2 0,1 12,0 1022,2 1017,3 1019,82 1019,75 4,9   Ciel 6/8 à 8/8 le matin, entre 7/8 et 8/8 l'après-midi, traces de précipitations  
24/06/2021 22,2 10,9 17,00 16,53 16,81 21,7 16,55 10,9 11,2 22,6 10,8 17,09 16,70 93% 53% 75,5% 73,0% 13,9 9,7 12,26 19,94 9,68 N 30,6 WSW 13,34 32,1 32 0,0 0,0 0,0 1024,4 1021,7 1023,15 1023,05 2,7   Ciel 8/8 à 6/8 le matin, 6/8 à 2/8 l'après-midi, 0/8 le soir  
25/06/2021 22,9 9,4 16,58 16,17 16,52 22,9 16,08 8,4 13,4 23,2 9,2 16,55 16,20 96% 54% 77,9% 75,0% 15,4 8,7 12,28 20,58 8,31 W 32,2 NW 11,10 32,8 32 0,0 0,0 0,0 1024,0 1018,8 1021,08 1021,40 5,2   Ciel 0/8 6/8 le matin, 6/8 à 4/8 l'après-midi  
26/06/2021 25,0 13,6 18,25 19,27 18,30 24,8 18,00 13,6 11,3 24,8 13,6 18,33 19,20 95% 41% 78,3% 68,0% 15,6 8,8 13,92 21,70 7,11 WSW 40,2 SW 9,91 51,0 53 1,8 0,8 12,0 1018,9 1011,9 1015,15 1015,40 7,0   Ciel 4/8 à 6/8 le matin, 6/8 à 7/8 l'après-midi, 8/8 le soir, pluie  
27/06/2021 18,6 12,7 16,07 15,67 16,21 19,0 15,68 11,9 5,9 18,8 12,7 16,11 15,75 97% 73% 90,3% 85,0% 16,6 11,2 14,36 19,62 8,06 SW 27,4 WSW 11,43 27,5 27 12,6 3,1 24,0 1015,0 1011,1 1013,43 1013,05 3,9   Ciel 8/8, pluie, 7/8 à 6/8 en soirée  
28/06/2021 20,5 10,8 15,06 15,63 15,12 20,6 13,81 9,5 9,6 20,5 10,9 15,06 15,70 96% 64% 89,0% 80,0% 16,2 10,2 13,08 27,19 12,70 SSE 40,2 W 17,37 45,1 46 22,6 3,4 144,0 1014,8 1012,2 1013,78 1013,50 2,6   Ciel entre 4/8 et 8/8, pluie fréquente  
29/06/2021 20,8 10,1 15,71 15,43 15,91 20,9 14,35 10,1 10,5 20,8 9,9 15,66 15,35 97% 63% 88,7% 80,0% 16,0 9,4 13,63 32,68 14,32 W 46,7 W 18,42 46,5 48 9,2 1,9 36,0 1018,3 1014,0 1015,99 1016,15 4,3   Ciel entre 2/8 et 8/8, pluie intermittente  
30/06/2021 22,9 11,5 17,80 17,21 17,97 23,3 17,29 11,6 11,3 23,1 11,6 17,92 17,35 97% 62% 83,5% 79,5% 17,4 10,9 14,66 21,22 8,91 WSW 32,2 W 12,04 32,4 33 0,2 0,1 12,0 1019,5 1017,7 1018,42 1018,60 1,8   Ciel 3/8 à 6/8 le matin, 6/8 à 0/8 l'après-midi  
                                                                               
  Température (°C) - Abri Young à ventilation mécanique 43502 (moy/5min)  Davis 7714 (moy/1min) Humidité Vent Davis (km/h) PeetBros Instromet Précipitations (mm) Pression (hPa) Divers  
PT1000 Maxi USCRN /5min Mini  USCRN /5min Moy de 1440 relevés Moy (tx+tn)/2 Index chaleur moyen Index chaleur maxi Froid dû au vent moy/5min  Froid dû au vent mini/5min   Amplitude (tx-tn) Tx OMM/1min Tn OMM/1min Moy de 1440 relevés Moy (tx+tn)/2 Relative maxi Relative mini Relative moy de 1440 relevés Relative moy (hx+hn)/2 Point de rosée maxi Point de rosée mini Point de rosée moy 1440 relevés Vent moy maxi (10min) Vent  moyen (24h) Direction dominante Rafales (km/h) maxi Direction rafale maxi Rafales moy (24h) Rafales (km/h)   maxi Rafales (km/h)   maxi Total du jour (mm) Durée en heures et dixièmes Intensité maxi sur 1 min (mm/h) Maxi Mini Moy de 1440 relevés Moy (px+pn)/2 Variation Epaisseur neige (cm) Remarques diverses  
Maxi 33,0 18,0 25,25 25,16 25,70 34,6 25,07 17,2 18,3 33,2 18,0 25,36 25,20 97% 77% 90,8% 87,0% 20,5 17,1 18,30 39,75 14,32 WNW 56,3 WSW 18,42 55,9 58 23,6 3,4 156,0 1027,5 1024,3 1026,03 1025,90 8,5 0,0    
Mini 17,7 8,3 15,06 14,59 15,12 17,7 13,81 8,0 4,8 17,7 8,2 15,06 14,60 86% 32% 61,4% 60,5% 13,5 7,5 10,80 15,30 7,11   22,5   9,65 24,0 23       1010,3 1003,4 1006,69 1007,65 1,6      
Moy 25,09 13,35 19,24 19,22 19,42 25,36 18,75 12,86 11,68 25,21 13,35 19,29 19,28 94,1% 54,3% 77,7% 74,2% 17,14 11,64 14,66 23,07 9,55   34,29   13,03 35,14 35,5       1019,47 1015,22 1017,30 1017,34 4,25      
Total                                                         128,6 22,4             0,0    
   
Observations    
Jours Rafales >= 36,0 km/h Rafales >= 57,6 km/h Rafales >= 75,6 km/h Rafales >= 100,8 km/h Précipi. >= 0,1 mm Précipi. >= 1,0 mm Précipi. >= 5,0 mm Précipi. >= 10,0 mm Tx <= 0 Tx <= -5 Tx <= -10 Tx >= 20 Tx >= 25 Tx >= 30 Tx >= 35 Tx >= 40 Tn <= 0 Tn <= -5 Tn <= -10 Tn <= -15 Tn <= -20 T moy <= 0 T moy <=     -5 T moy <=     -10 T moy >= 20 T moy >= 25 T moy >= 30 Grêle Grésil Brouillard Brume Orage Neige        
01/06/2021 0 0 0 0 1 1 0 0 0 0 0 1 1 0 0 0 0 0 0 0 0 0 0 0 0 0 0 0 0 0 0 0 0    
02/06/2021 0 0 0 0 1 0 0 0 0 0 0 1 0 0 0 0 0 0 0 0 0 0 0 0 0 0 0 0 0 0 0 0 0    
03/06/2021 0 0 0 0 1 1 0 0 0 0 0 1 0 0 0 0 0 0 0 0 0 0 0 0 0 0 0 0 0 0 0 0 0    
04/06/2021 0 0 0 0 1 1 0 0 0 0 0 0 0 0 0 0 0 0 0 0 0 0 0 0 0 0 0 0 0 0 0 0 0    
05/06/2021 0 0 0 0 1 0 0 0 0 0 0 1 0 0 0 0 0 0 0 0 0 0 0 0 0 0 0 0 0 0 0 0 0    
06/06/2021 0 0 0 0 0 0 0 0 0 0 0 1 0 0 0 0 0 0 0 0 0 0 0 0 0 0 0 0 0 0 0 0 0    
07/06/2021 0 0 0 0 0 0 0 0 0 0 0 1 1 0 0 0 0 0 0 0 0 0 0 0 0 0 0 0 0 0 0 0 0    
08/06/2021 0 0 0 0 0 0 0 0 0 0 0 1 1 0 0 0 0 0 0 0 0 0 0 0 0 0 0 0 0 0 0 0 0    
09/06/2021 0 0 0 0 0 0 0 0 0 0 0 1 1 0 0 0 0 0 0 0 0 0 0 0 0 0 0 0 0 0 0 0 0    
10/06/2021 0 0 0 0 0 0 0 0 0 0 0 1 1 0 0 0 0 0 0 0 0 0 0 0 0 0 0 0 0 1 0 0 0    
11/06/2021 0 0 0 0 0 0 0 0 0 0 0 1 1 1 0 0 0 0 0 0 0 0 0 0 0 0 0 0 0 0 0 0 0    
12/06/2021 0 0 0 0 0 0 0 0 0 0 0 1 1 1 0 0 0 0 0 0 0 0 0 0 0 0 0 0 0 0 0 0 0    
13/06/2021 0 0 0 0 0 0 0 0 0 0 0 1 1 1 0 0 0 0 0 0 0 0 0 0 0 0 0 0 0 0 0 0 0    
14/06/2021 1 0 0 0 0 0 0 0 0 0 0 1 1 1 0 0 0 0 0 0 0 0 0 0 0 0 0 0 0 0 0 0 0    
15/06/2021 0 0 0 0 0 0 0 0 0 0 0 1 1 1 0 0 0 0 0 0 0 0 0 0 0 0 0 0 0 0 0 0 0    
16/06/2021 1 0 0 0 1 1 1 0 0 0 0 1 1 1 0 0 0 0 0 0 0 0 0 0 0 0 0 0 0 0 0 1 0    
17/06/2021 0 0 0 0 1 1 1 1 0 0 0 1 0 0 0 0 0 0 0 0 0 0 0 0 0 0 0 0 0 0 0 0 0    
18/06/2021 0 0 0 0 1 1 1 1 0 0 0 1 0 0 0 0 0 0 0 0 0 0 0 0 0 0 0 0 0 0 0 0 0    
19/06/2021 1 0 0 0 1 1 1 1 0 0 0 1 0 0 0 0 0 0 0 0 0 0 0 0 0 0 0 0 0 0 0 1 0    
20/06/2021 1 0 0 0 1 0 0 0 0 0 0 1 1 0 0 0 0 0 0 0 0 0 0 0 0 0 0 0 0 0 0 0 0    
21/06/2021 1 0 0 0 1 0 0 0 0 0 0 1 0 0 0 0 0 0 0 0 0 0 0 0 0 0 0 0 0 0 0 1 0    
22/06/2021 0 0 0 0 1 1 1 0 0 0 0 1 0 0 0 0 0 0 0 0 0 0 0 0 0 0 0 0 0 0 0 1 0    
23/06/2021 0 0 0 0 1 0 0 0 0 0 0 0 0 0 0 0 0 0 0 0 0 0 0 0 0 0 0 0 0 0 0 0 0    
24/06/2021 0 0 0 0 0 0 0 0 0 0 0 1 0 0 0 0 0 0 0 0 0 0 0 0 0 0 0 0 0 0 0 0 0    
25/06/2021 0 0 0 0 0 0 0 0 0 0 0 1 0 0 0 0 0 0 0 0 0 0 0 0 0 0 0 0 0 0 0 0 0    
26/06/2021 1 0 0 0 1 1 0 0 0 0 0 1 1 0 0 0 0 0 0 0 0 0 0 0 0 0 0 0 0 0 0 0 0    
27/06/2021 0 0 0 0 1 1 1 1 0 0 0 0 0 0 0 0 0 0 0 0 0 0 0 0 0 0 0 0 0 0 0 0 0    
28/06/2021 1 0 0 0 1 1 1 1 0 0 0 1 0 0 0 0 0 0 0 0 0 0 0 0 0 0 0 0 0 0 0 0 0    
29/06/2021 1 0 0 0 1 1 1 0 0 0 0 1 0 0 0 0 0 0 0 0 0 0 0 0 0 0 0 0 0 0 0 0 0        
30/06/2021 0 0 0 0 1 0 0 0 0 0 0 1 0 0 0 0 0 0 0 0 0 0 0 0 0 0 0 0 0 0 0 0 0    
                                                                       
   
  Rafales >= 36,0 km/h Rafales >= 57,6 km/h Rafales >= 75,6 km/h Rafales >= 100,8 km/h Précipi. >= 0,1 mm Précipi. >= 1,0 mm Précipi. >= 5,0 mm Précipi. >= 10,0 mm Tx <=0 Tx <= -5 Tx <= -10 Tx >= 20 Tx >= 25 Tx >= 30 Tx >= 35 Tx >= 40 Tn <= 0 Tn <= -5 Tn <= -10 Tn <= -15 Tn <= -20 T moy <= 0 T moy <=  -5 T moy <=  -10 T moy >= 20 T moy >= 25 T moy >= 30 Grêle Grésil Brouillard Brume Orage Neige        
Total 8 0 0 0 18 12 8 5 0 0 0 27 13 6 0 0 0 0 0 0 0 0 0 0 0 0 0 0 0 1 0 4 0